createdAt,value
2019-04-01T00:04:00.355Z,98589.28
2019-04-01T00:08:05.243Z,98582.59
2019-04-01T00:12:10.135Z,98588.55
2019-04-01T00:16:15.032Z,98586.61
2019-04-01T00:20:19.944Z,98586.23
2019-04-01T00:24:24.832Z,98577.08
2019-04-01T00:28:29.733Z,98580.59
2019-04-01T00:32:34.633Z,98581.89
2019-04-01T00:36:40.501Z,98579.29
2019-04-01T00:40:45.399Z,98584.06
2019-04-01T00:44:50.293Z,98577.84
2019-04-01T00:48:55.197Z,98587.12
2019-04-01T00:53:00.091Z,98578.96
2019-04-01T00:57:05.011Z,98578.87
2019-04-01T01:01:10.401Z,98584.19
2019-04-01T01:05:15.297Z,98577.88
2019-04-01T01:09:20.200Z,98572.26
2019-04-01T01:13:25.097Z,98576.16
2019-04-01T01:17:29.997Z,98566.20
2019-04-01T01:21:35.266Z,98560.18
2019-04-01T01:25:40.150Z,98564.16
2019-04-01T01:29:45.053Z,98565.45
2019-04-01T01:33:50.927Z,98567.23
2019-04-01T01:37:55.825Z,98567.30
2019-04-01T01:42:00.718Z,98569.11
2019-04-01T01:46:05.622Z,98569.61
2019-04-01T01:50:10.512Z,98564.02
2019-04-01T01:54:15.410Z,98559.30
2019-04-01T01:58:20.307Z,98562.43
2019-04-01T02:02:25.205Z,98561.59
2019-04-01T02:06:30.124Z,98556.44
2019-04-01T02:10:35.011Z,98568.54
2019-04-01T02:14:39.910Z,98568.53
2019-04-01T02:18:44.814Z,98562.83
2019-04-01T02:22:49.721Z,98559.59
2019-04-01T02:26:54.617Z,98547.02
2019-04-01T02:30:59.507Z,98548.39
2019-04-01T02:35:05.441Z,98555.38
2019-04-01T02:39:10.343Z,98558.00
2019-04-01T02:43:15.251Z,98554.08
2019-04-01T02:47:20.219Z,98561.47
2019-04-01T02:51:25.107Z,98555.38
2019-04-01T02:55:30.018Z,98551.95
2019-04-01T02:59:34.926Z,98547.37
2019-04-01T03:03:39.793Z,98556.49
2019-04-01T03:07:44.751Z,98553.04
2019-04-01T03:11:49.628Z,98547.86
2019-04-01T03:15:54.523Z,98547.48
2019-04-01T03:19:59.425Z,98540.23
2019-04-01T03:24:04.325Z,98539.44
2019-04-01T03:28:09.295Z,98534.72
2019-04-01T03:32:14.184Z,98542.93
2019-04-01T03:36:19.089Z,98548.95
2019-04-01T03:40:23.986Z,98545.04
2019-04-01T03:44:28.886Z,98547.17
2019-04-01T03:48:33.782Z,98547.72
2019-04-01T03:52:38.660Z,98551.25
2019-04-01T03:56:43.632Z,98552.56
2019-04-01T04:00:48.536Z,98555.56
2019-04-01T04:04:53.427Z,98552.52
2019-04-01T04:09:02.045Z,98561.18
2019-04-01T04:13:04.997Z,98559.47
2019-04-01T04:17:09.882Z,98549.55
2019-04-01T04:21:14.780Z,98549.98
2019-04-01T04:25:19.682Z,98555.63
2019-04-01T04:29:24.586Z,98555.20
2019-04-01T04:33:29.477Z,98553.94
2019-04-01T04:37:34.365Z,98557.41
2019-04-01T04:41:39.275Z,98549.66
2019-04-01T04:45:44.165Z,98555.69
2019-04-01T04:49:49.066Z,98557.85
2019-04-01T04:53:53.950Z,98554.83
2019-04-01T04:57:58.844Z,98551.83
2019-04-01T05:02:03.745Z,98561.30
2019-04-01T05:06:08.639Z,98560.44
2019-04-01T05:10:13.535Z,98558.28
2019-04-01T05:14:18.423Z,98558.28
2019-04-01T05:18:23.327Z,98553.97
2019-04-01T05:22:29.365Z,98559.59
2019-04-01T05:26:36.201Z,98561.30
2019-04-01T05:30:41.276Z,98563.89
2019-04-01T05:34:46.534Z,98566.48
2019-04-01T05:38:51.433Z,98571.20
2019-04-01T05:42:56.395Z,98578.09
2019-04-01T05:47:01.294Z,98570.77
2019-04-01T05:51:06.194Z,98576.75
2019-04-01T05:55:11.146Z,98573.70
2019-04-01T05:59:16.917Z,98578.46
2019-04-01T06:03:21.816Z,98577.55
2019-04-01T06:07:27.181Z,98574.02
2019-04-01T06:11:32.448Z,98579.53
2019-04-01T06:15:38.187Z,98573.78
2019-04-01T06:19:43.072Z,98580.58
2019-04-01T06:23:47.967Z,98585.54
2019-04-01T06:27:52.932Z,98580.12
2019-04-01T06:31:58.380Z,98580.86
2019-04-01T06:36:03.294Z,98581.73
2019-04-01T06:40:08.822Z,98565.12
2019-04-01T06:44:13.730Z,98566.81
2019-04-01T06:48:18.632Z,98562.38
2019-04-01T06:52:23.536Z,98567.16
2019-04-01T06:56:28.448Z,98564.34
2019-04-01T07:00:33.347Z,98564.25
2019-04-01T07:04:38.239Z,98572.05
2019-04-01T07:08:43.137Z,98568.78
2019-04-01T07:12:48.099Z,98563.59
2019-04-01T07:16:53.077Z,98558.17
2019-04-01T07:20:57.950Z,98562.06
2019-04-01T07:25:03.114Z,98574.48
2019-04-01T07:29:08.006Z,98565.39
2019-04-01T07:33:12.972Z,98562.09
2019-04-01T07:37:17.868Z,98561.00
2019-04-01T07:41:22.740Z,98557.36
2019-04-01T07:45:28.110Z,98555.72
2019-04-01T07:49:33.098Z,98543.24
2019-04-01T07:53:37.975Z,98535.86
2019-04-01T07:57:42.869Z,98540.39
2019-04-01T08:01:48.027Z,98541.38
2019-04-01T08:05:52.934Z,98530.56
2019-04-01T08:09:57.834Z,98529.08
2019-04-01T08:14:03.605Z,98527.88
2019-04-01T08:18:08.487Z,98521.02
2019-04-01T08:22:13.417Z,98522.86
2019-04-01T08:26:18.319Z,98522.11
2019-04-01T08:30:23.216Z,98526.98
2019-04-01T08:34:28.181Z,98516.63
2019-04-01T08:38:33.075Z,98518.76
2019-04-01T08:42:38.028Z,98518.04
2019-04-01T08:46:43.004Z,98521.13
2019-04-01T08:50:47.901Z,98512.75
2019-04-01T08:54:52.793Z,98511.31
2019-04-01T08:58:57.694Z,98509.17
2019-04-01T09:03:02.588Z,98509.22
2019-04-01T09:07:07.499Z,98508.84
2019-04-01T09:11:12.663Z,98505.43
2019-04-01T09:15:17.636Z,98504.77
2019-04-01T09:19:22.538Z,98497.31
2019-04-01T09:23:28.271Z,98505.13
2019-04-01T09:27:33.183Z,98495.44
2019-04-01T09:31:38.084Z,98492.39
2019-04-01T09:35:42.994Z,98487.02
2019-04-01T09:39:47.895Z,98480.09
2019-04-01T09:43:52.804Z,98474.09
2019-04-01T09:47:57.695Z,98466.88
2019-04-01T09:52:03.999Z,98466.82
2019-04-01T09:56:10.189Z,98461.98
2019-04-01T10:00:15.632Z,98463.91
2019-04-01T10:04:20.522Z,98464.66
2019-04-01T10:08:25.437Z,98456.86
2019-04-01T10:12:30.344Z,98452.70
2019-04-01T10:16:35.249Z,98448.69
2019-04-01T10:20:40.165Z,98439.27
2019-04-01T10:24:46.039Z,98435.20
2019-04-01T10:28:50.950Z,98436.92
2019-04-01T10:32:55.852Z,98431.85
2019-04-01T10:37:00.763Z,98435.70
2019-04-01T10:41:06.634Z,98424.43
2019-04-01T10:45:11.893Z,98429.00
2019-04-01T10:49:16.894Z,98429.55
2019-04-01T10:53:21.792Z,98418.41
2019-04-01T10:57:26.734Z,98410.58
2019-04-01T11:01:31.707Z,98410.90
2019-04-01T11:05:36.551Z,98405.34
2019-04-01T11:09:41.501Z,98409.36
2019-04-01T11:13:46.403Z,98402.91
2019-04-01T11:17:52.439Z,98389.10
2019-04-01T11:21:57.702Z,98390.25
2019-04-01T11:26:02.614Z,98385.44
2019-04-01T11:30:08.490Z,98384.38
2019-04-01T11:34:14.419Z,98374.52
2019-04-01T11:38:19.329Z,98372.08
2019-04-01T11:42:24.233Z,98364.88
2019-04-01T11:46:29.176Z,98361.77
2019-04-01T11:50:34.175Z,98360.98
2019-04-01T11:54:39.026Z,98353.89
2019-04-01T11:58:43.945Z,98343.92
2019-04-01T12:02:48.857Z,98338.84
2019-04-01T12:06:53.775Z,98328.40
2019-04-01T12:10:59.658Z,98329.27
2019-04-01T12:15:05.917Z,98314.67
2019-04-01T12:19:10.833Z,98313.03
2019-04-01T12:23:15.743Z,98307.16
2019-04-01T12:27:20.657Z,98300.00
2019-04-01T12:31:25.564Z,98297.12
2019-04-01T12:35:30.472Z,98290.97
2019-04-01T12:39:35.391Z,98296.97
2019-04-01T12:43:40.311Z,98292.66
2019-04-01T12:47:45.237Z,98275.15
2019-04-01T12:51:50.195Z,98273.58
2019-04-01T12:55:55.131Z,98273.58
2019-04-01T13:00:00.044Z,98276.22
2019-04-01T13:04:05.030Z,98263.30
2019-04-01T13:08:09.944Z,98250.16
2019-04-01T13:12:14.850Z,98250.16
2019-04-01T13:16:19.766Z,98240.60
2019-04-01T13:20:37.191Z,98232.94
2019-04-01T13:24:31.286Z,98229.27
2019-04-01T13:28:36.225Z,98214.60
2019-04-01T13:32:41.115Z,98218.54
2019-04-01T13:36:46.017Z,98214.70
2019-04-01T13:40:50.938Z,98206.70
2019-04-01T13:44:55.853Z,98199.08
2019-04-01T13:49:04.228Z,98199.22
2019-04-01T13:53:07.390Z,98185.98
2019-04-01T13:57:13.091Z,98176.62
2019-04-01T14:01:18.486Z,98181.16
2019-04-01T14:05:24.962Z,98176.42
2019-04-01T14:09:30.924Z,98169.45
2019-04-01T14:13:35.899Z,98165.11
2019-04-01T14:17:40.802Z,98159.67
2019-04-01T14:21:45.737Z,98155.63
2019-04-01T14:25:50.665Z,98154.55
2019-04-01T14:29:55.584Z,98146.24
2019-04-01T14:34:01.274Z,98140.20
2019-04-01T14:38:06.279Z,98138.47
2019-04-01T14:42:11.193Z,98133.67
2019-04-01T14:46:16.108Z,98122.06
2019-04-01T14:50:21.014Z,98125.86
2019-04-01T14:54:25.934Z,98119.59
2019-04-01T14:58:30.846Z,98110.75
2019-04-01T15:02:35.752Z,98107.91
2019-04-01T15:06:40.667Z,98096.23
2019-04-01T15:10:45.579Z,98103.11
2019-04-01T15:14:50.502Z,98093.53
2019-04-01T15:18:55.412Z,98100.61
2019-04-01T15:23:00.335Z,98090.83
2019-04-01T15:27:05.259Z,98093.94
2019-04-01T15:31:10.177Z,98093.45
2019-04-01T15:35:15.084Z,98071.84
2019-04-01T15:39:20.300Z,98075.23
2019-04-01T15:43:25.177Z,98069.78
2019-04-01T15:47:30.093Z,98063.06
2019-04-01T15:51:35.012Z,98062.05
2019-04-01T15:55:40.039Z,98058.06
2019-04-01T15:59:44.953Z,98056.11
2019-04-01T16:03:49.864Z,98052.05
2019-04-01T16:07:54.781Z,98041.45
2019-04-01T16:11:59.696Z,98043.90
2019-04-01T16:16:04.718Z,98042.95
2019-04-01T16:20:09.860Z,98027.50
2019-04-01T16:24:15.333Z,98025.41
2019-04-01T16:28:21.168Z,98028.41
2019-04-01T16:32:26.084Z,98018.86
2019-04-01T16:36:31.001Z,98012.18
2019-04-01T16:40:35.976Z,98014.95
2019-04-01T16:44:40.889Z,98008.62
2019-04-01T16:48:46.588Z,97991.97
2019-04-01T16:52:51.593Z,98013.54
2019-04-01T16:56:56.512Z,98013.54
2019-04-01T17:01:02.616Z,98008.11
2019-04-01T17:05:08.149Z,98002.77
2019-04-01T17:09:13.124Z,98001.02
2019-04-01T17:13:18.048Z,98002.29
2019-04-01T17:17:23.399Z,98003.80
2019-04-01T17:21:28.305Z,98005.23
2019-04-01T17:25:33.211Z,98009.30
2019-04-01T17:29:40.427Z,98001.58
2019-04-01T17:33:45.334Z,98000.48
2019-04-01T17:37:50.246Z,98007.91
2019-04-01T17:41:55.204Z,98003.30
2019-04-01T17:46:00.281Z,98002.25
2019-04-01T17:50:06.825Z,97998.17
2019-04-01T17:54:11.729Z,97999.27
2019-04-01T17:58:16.635Z,97999.59
2019-04-01T18:02:29.709Z,97999.98
2019-04-01T18:06:34.606Z,97998.70
2019-04-01T18:10:39.510Z,97998.13
2019-04-01T18:14:44.417Z,97996.10
2019-04-01T18:18:49.324Z,98000.15
2019-04-01T18:22:54.234Z,97999.83
2019-04-01T18:26:59.135Z,98008.30
2019-04-01T18:31:04.360Z,98005.05
2019-04-01T18:35:09.692Z,98012.56
2019-04-01T18:39:15.309Z,98009.24
2019-04-01T18:43:20.487Z,98022.66
2019-04-01T18:47:25.541Z,98019.90
2019-04-01T18:51:30.451Z,98024.19
2019-04-01T18:55:35.368Z,98030.20
2019-04-01T18:59:40.270Z,98036.61
2019-04-01T19:03:45.173Z,98028.95
2019-04-01T19:07:50.071Z,98030.45
2019-04-01T19:12:03.753Z,98029.03
2019-04-01T19:16:05.845Z,98034.92
2019-04-01T19:20:11.787Z,98037.34
2019-04-01T19:24:16.747Z,98032.28
2019-04-01T19:28:21.630Z,98033.79
2019-04-01T19:32:27.383Z,98033.21
2019-04-01T19:36:32.437Z,98028.86
2019-04-01T19:40:37.341Z,98027.79
2019-04-01T19:44:43.199Z,98033.80
2019-04-01T19:48:48.418Z,98035.89
2019-04-01T19:52:55.292Z,98031.84
2019-04-01T19:56:59.935Z,98034.19
2019-04-01T20:01:04.913Z,98038.24
2019-04-01T20:05:10.061Z,98032.45
2019-04-01T20:09:14.968Z,98036.68
2019-04-01T20:13:19.861Z,98032.78
2019-04-01T20:17:24.763Z,98035.62
2019-04-01T20:21:29.660Z,98029.56
2019-04-01T20:25:34.631Z,98029.05
2019-04-01T20:29:40.302Z,98024.31
2019-04-01T20:33:45.514Z,98027.22
2019-04-01T20:37:50.405Z,98025.16
2019-04-01T20:41:55.304Z,98016.86
2019-04-01T20:46:00.201Z,98010.67
2019-04-01T20:50:10.117Z,98006.77
2019-04-01T20:54:16.013Z,98012.69
2019-04-01T20:58:22.066Z,98010.52
2019-04-01T21:02:26.967Z,98002.46
2019-04-01T21:06:31.870Z,98001.67
2019-04-01T21:10:36.765Z,98007.27
2019-04-01T21:14:41.654Z,98006.72
2019-04-01T21:18:47.987Z,98000.19
2019-04-01T21:22:53.144Z,97994.87
2019-04-01T21:26:58.045Z,97996.70
2019-04-01T21:31:02.932Z,97995.59
2019-04-01T21:35:09.007Z,97990.38
2019-04-01T21:39:14.354Z,97986.78
2019-04-01T21:43:20.314Z,97986.78
2019-04-01T21:47:25.624Z,97973.83
2019-04-01T21:51:33.064Z,97975.16
2019-04-01T21:55:37.953Z,97972.42
2019-04-01T21:59:42.848Z,97969.30
2019-04-01T22:03:47.750Z,97969.49
2019-04-01T22:07:52.650Z,97961.42
2019-04-01T22:11:58.145Z,97954.50
2019-04-01T22:16:03.313Z,97950.45
2019-04-01T22:20:08.272Z,97945.78
2019-04-01T22:24:13.184Z,97948.50
2019-04-01T22:28:18.063Z,97944.55
2019-04-01T22:32:22.976Z,97943.47
2019-04-01T22:36:31.213Z,97935.97
2019-04-01T22:40:34.516Z,97929.61
2019-04-01T22:44:39.430Z,97935.34
2019-04-01T22:48:44.326Z,97930.24
2019-04-01T22:52:49.227Z,97922.02
2019-04-01T22:56:54.111Z,97923.99
2019-04-01T23:01:00.079Z,97911.96
2019-04-01T23:05:06.210Z,97914.56
2019-04-01T23:09:11.109Z,97915.01
2019-04-01T23:13:16.078Z,97905.03
2019-04-01T23:17:20.966Z,97900.24
2019-04-01T23:21:25.869Z,97898.27
2019-04-01T23:25:30.758Z,97891.03
2019-04-01T23:29:35.667Z,97882.46
2019-04-01T23:33:40.544Z,97889.41
2019-04-01T23:37:45.429Z,97888.62
2019-04-01T23:41:50.328Z,97882.70
2019-04-01T23:45:55.232Z,97882.30
2019-04-01T23:50:00.125Z,97883.24
2019-04-01T23:54:05.021Z,97867.73
2019-04-01T23:58:09.904Z,97865.61
